Time;durP1;ratioP1;P1;durP2;ratioP2;P2;SDS_P1;SDS_P2;PMS_P1;PMS_P2;Temp;Humidity;BMP_temperature;BMP_pressure;BME280_temperature;BME280_humidity;BME280_pressure;Samples;Min_cycle;Max_cycle;Signal;HPM_P1;HPM_P2
2022/05/07 00:00:22;;;;;;;5.07;1.93;;;;;;;15.31;58.28;99646.44;5029420;28;20194;-85
2022/05/07 00:02:48;;;;;;;4.93;2.13;;;;;;;15.34;57.95;99640.97;5029441;28;20646;-85
2022/05/07 00:05:14;;;;;;;3.57;1.80;;;;;;;15.24;58.24;99639.00;5030168;28;20177;-85
2022/05/07 00:07:39;;;;;;;4.63;1.90;;;;;;;15.18;58.55;99640.22;5030162;28;20229;-85
2022/05/07 00:10:05;;;;;;;5.23;2.73;;;;;;;15.17;58.51;99632.41;5030391;28;20675;-85
2022/05/07 00:12:31;;;;;;;2.97;1.50;;;;;;;15.25;58.61;99630.16;5030364;28;20181;-85
2022/05/07 00:14:56;;;;;;;5.40;1.90;;;;;;;15.23;58.38;99638.13;5030075;28;20274;-85
2022/05/07 00:20:07;;;;;;;3.53;1.83;;;;;;;15.07;58.79;99626.84;5030576;28;20640;-85
2022/05/07 00:22:32;;;;;;;5.47;1.77;;;;;;;15.07;58.96;99626.84;5030301;28;20189;-85
2022/05/07 00:24:57;;;;;;;3.27;1.70;;;;;;;15.12;58.40;99616.84;5030055;28;20178;-85
2022/05/07 00:27:23;;;;;;;9.20;1.93;;;;;;;15.15;58.40;99621.94;5030291;28;20497;-85
2022/05/07 00:29:49;;;;;;;5.07;2.77;;;;;;;15.20;58.18;99627.78;5029911;28;20173;-85
2022/05/07 00:32:15;;;;;;;5.23;2.17;;;;;;;15.29;57.70;99632.47;5029908;28;20182;-85
2022/05/07 00:34:40;;;;;;;8.03;2.30;;;;;;;15.30;57.60;99623.59;5030526;28;20179;-85
2022/05/07 00:37:06;;;;;;;6.03;2.67;;;;;;;15.20;57.69;99627.78;5029804;28;20178;-85
2022/05/07 00:39:31;;;;;;;6.73;2.00;;;;;;;15.04;58.18;99632.31;5029878;28;20203;-85
2022/05/07 00:42:04;;;;;;;4.27;2.03;;;;;;;14.95;58.16;99624.13;5028934;28;20546;-85
2022/05/07 00:44:29;;;;;;;3.10;2.17;;;;;;;14.89;58.29;99622.72;5028843;28;20550;-85
2022/05/07 00:47:04;;;;;;;5.03;1.90;;;;;;;14.88;58.79;99621.03;5031408;28;20176;-85
2022/05/07 00:49:29;;;;;;;3.07;2.00;;;;;;;14.84;59.54;99621.31;5033420;28;20531;-85
2022/05/07 00:51:55;;;;;;;3.20;1.93;;;;;;;14.72;59.86;99620.28;5033057;28;20182;-85
2022/05/07 00:54:23;;;;;;;4.57;2.03;;;;;;;14.74;59.61;99613.97;5032941;28;20631;-85
2022/05/07 00:56:48;;;;;;;7.60;2.00;;;;;;;14.72;59.83;99612.38;5033256;28;20171;-85
2022/05/07 00:59:14;;;;;;;6.30;2.60;;;;;;;14.68;59.70;99614.34;5033164;28;20190;-85
2022/05/07 01:01:40;;;;;;;4.27;1.70;;;;;;;14.66;59.55;99612.75;5032949;28;20232;-85
2022/05/07 01:04:06;;;;;;;5.77;2.03;;;;;;;14.57;59.41;99608.06;5033148;28;20171;-85
2022/05/07 01:06:31;;;;;;;4.37;2.13;;;;;;;14.50;59.88;99604.06;5033221;28;20185;-85
2022/05/07 01:08:57;;;;;;;5.70;2.10;;;;;;;14.46;60.49;99597.31;5031926;28;20621;-85
2022/05/07 01:11:23;;;;;;;6.03;2.00;;;;;;;14.37;60.90;99598.72;5031930;28;20696;-85
2022/05/07 01:13:49;;;;;;;3.03;1.53;;;;;;;14.36;60.93;99598.81;5032860;28;20182;-85
2022/05/07 01:16:15;;;;;;;4.40;1.80;;;;;;;14.34;60.93;99603.31;5031831;28;20246;-85
2022/05/07 01:18:41;;;;;;;5.60;2.03;;;;;;;14.36;60.66;99604.91;5032968;28;20206;-85
2022/05/07 01:21:14;;;;;;;2.57;1.57;;;;;;;14.32;60.55;99600.78;5032869;28;20182;-85
2022/05/07 01:23:41;;;;;;;3.07;1.87;;;;;;;14.30;60.65;99602.63;5031662;28;20182;-84
2022/05/07 01:26:07;;;;;;;4.27;2.20;;;;;;;14.29;60.88;99603.56;5032549;28;20188;-84
2022/05/07 01:28:33;;;;;;;4.97;2.10;;;;;;;14.26;60.76;99602.88;5032493;28;20181;-85
2022/05/07 01:30:59;;;;;;;4.63;2.10;;;;;;;14.21;60.83;99600.53;5032455;28;20179;-85
2022/05/07 01:33:25;;;;;;;3.53;1.93;;;;;;;14.20;61.42;99601.50;5031489;28;20198;-85
2022/05/07 01:35:50;;;;;;;5.60;1.87;;;;;;;14.07;61.45;99597.88;5032428;28;20189;-85
2022/05/07 01:38:16;;;;;;;5.43;2.00;;;;;;;13.91;62.39;99602.38;5031379;28;20736;-85
2022/05/07 01:40:41;;;;;;;3.40;1.67;;;;;;;13.79;62.88;99596.00;5031368;28;20276;-85
2022/05/07 01:43:07;;;;;;;7.57;2.43;;;;;;;13.78;63.13;99598.75;5032296;28;20181;-84
2022/05/07 01:45:32;;;;;;;3.83;1.70;;;;;;;13.73;63.36;99601.63;5032537;28;20717;-84
2022/05/07 01:48:10;;;;;;;4.33;2.00;;;;;;;13.73;62.93;99606.91;5032240;28;20541;-84
2022/05/07 01:50:39;;;;;;;4.77;2.07;;;;;;;13.76;62.17;99603.22;5032503;28;20172;-84
2022/05/07 01:53:09;;;;;;;9.90;2.37;;;;;;;13.80;61.87;99600.34;5031997;28;20191;-84
2022/05/07 01:55:35;;;;;;;4.30;2.03;;;;;;;13.84;61.36;99598.38;5032636;28;20210;-84
2022/05/07 01:58:02;;;;;;;4.03;1.90;;;;;;;13.78;60.75;99596.13;5031913;28;20298;-84
2022/05/07 02:00:29;;;;;;;6.07;3.00;;;;;;;13.68;60.78;99590.50;5032307;28;20170;-84
2022/05/07 02:02:55;;;;;;;5.90;1.93;;;;;;;13.59;60.87;99596.31;5031048;28;20247;-84
2022/05/07 02:05:21;;;;;;;5.23;2.47;;;;;;;13.45;61.38;99590.97;5030991;28;20200;-84
2022/05/07 02:07:46;;;;;;;6.00;2.17;;;;;;;13.38;61.62;99594.91;5031913;28;20621;-84
2022/05/07 02:10:12;;;;;;;6.77;1.63;;;;;;;13.38;60.82;99593.13;5031238;28;20666;-84
2022/05/07 02:12:38;;;;;;;5.73;1.87;;;;;;;13.29;61.03;99585.75;5031860;28;20181;-84
2022/05/07 02:15:03;;;;;;;5.33;2.33;;;;;;;13.27;61.16;99590.25;5030855;28;20197;-84
2022/05/07 02:17:29;;;;;;;4.03;1.93;;;;;;;13.25;61.28;99594.75;5031655;28;20293;-84
2022/05/07 02:19:54;;;;;;;4.63;2.03;;;;;;;13.16;62.04;99594.41;5030745;28;20692;-84
2022/05/07 02:22:20;;;;;;;4.57;2.20;;;;;;;13.07;62.43;99595.78;5030723;28;20178;-84
2022/05/07 02:24:46;;;;;;;4.43;1.83;;;;;;;12.95;62.16;99592.00;5030721;28;20182;-84
2022/05/07 02:27:11;;;;;;;3.33;1.83;;;;;;;12.99;61.97;99599.72;5031869;28;20174;-84
2022/05/07 02:29:37;;;;;;;5.17;1.90;;;;;;;13.01;62.19;99584.69;5031574;28;20272;-84
2022/05/07 02:32:03;;;;;;;3.80;2.13;;;;;;;12.97;62.04;99593.72;5030615;28;20185;-84
2022/05/07 02:34:30;;;;;;;4.30;2.03;;;;;;;12.94;62.08;99590.28;5031743;28;20175;-84
2022/05/07 02:36:56;;;;;;;4.97;2.33;;;;;;;12.83;61.54;99586.56;5032021;28;20171;-84
2022/05/07 02:39:21;;;;;;;4.00;2.00;;;;;;;12.74;61.72;99593.16;5031344;28;20671;-85
2022/05/07 02:44:31;;;;;;;5.30;2.43;;;;;;;12.65;61.22;99588.41;5032220;28;20244;-84
2022/05/07 02:46:56;;;;;;;4.87;1.73;;;;;;;12.57;61.48;99595.88;5031290;28;20181;-84
2022/05/07 02:49:22;;;;;;;3.50;2.23;;;;;;;12.48;61.77;99596.34;5031761;28;20237;-84
2022/05/07 02:51:47;;;;;;;5.07;2.27;;;;;;;12.50;61.38;99597.09;5031470;28;20175;-84
2022/05/07 02:54:13;;;;;;;3.00;1.67;;;;;;;12.44;61.46;99594.81;5031042;28;20691;-84
2022/05/07 02:56:38;;;;;;;3.70;2.03;;;;;;;12.45;60.94;99596.50;5031182;28;20611;-84
2022/05/07 02:59:03;;;;;;;3.97;2.00;;;;;;;12.34;61.02;99598.88;5031007;28;20200;-84
2022/05/07 03:01:29;;;;;;;3.90;1.53;;;;;;;12.18;61.58;99598.81;5031355;28;20228;-84
2022/05/07 03:03:54;;;;;;;2.77;1.80;;;;;;;12.16;61.91;99605.06;5031339;28;20230;-84
2022/05/07 03:06:20;;;;;;;3.37;1.63;;;;;;;12.14;61.75;99612.16;5031234;28;20694;-84
2022/05/07 03:08:45;;;;;;;4.13;1.97;;;;;;;12.08;61.55;99612.50;5030236;28;20187;-84
2022/05/07 03:11:11;;;;;;;2.97;1.60;;;;;;;12.09;60.88;99601.03;5031599;28;20183;-84
2022/05/07 03:13:37;;;;;;;4.83;1.70;;;;;;;12.11;60.82;99600.03;5031120;28;20171;-84
2022/05/07 03:16:02;;;;;;;6.73;1.70;;;;;;;12.10;60.80;99613.28;5030994;28;20269;-84
2022/05/07 03:18:28;;;;;;;3.23;1.87;;;;;;;12.10;60.71;99611.50;5030868;28;20230;-84
2022/05/07 03:20:54;;;;;;;4.67;2.00;;;;;;;12.10;60.86;99610.66;5029892;28;20269;-84
2022/05/07 03:23:19;;;;;;;4.17;1.97;;;;;;;12.00;61.62;99612.03;5031301;28;20212;-84
2022/05/07 03:25:45;;;;;;;4.17;2.03;;;;;;;11.98;61.81;99611.25;5030956;28;20176;-84
2022/05/07 03:28:11;;;;;;;4.03;2.23;;;;;;;12.00;61.82;99612.88;5030710;28;20191;-84
2022/05/07 03:30:36;;;;;;;3.83;1.90;;;;;;;11.93;62.30;99619.38;5029720;28;20182;-84
2022/05/07 03:33:02;;;;;;;5.73;3.07;;;;;;;11.91;62.98;99620.38;5030721;28;20183;-84
2022/05/07 03:35:28;;;;;;;3.80;1.67;;;;;;;11.94;62.77;99623.72;5030695;28;20569;-84
2022/05/07 03:37:54;;;;;;;4.50;2.03;;;;;;;11.92;62.10;99633.44;5030890;28;20250;-84
2022/05/07 03:40:19;;;;;;;3.43;1.73;;;;;;;11.82;62.04;99633.97;5030742;28;20186;-84
2022/05/07 03:42:45;;;;;;;2.33;1.33;;;;;;;11.87;62.42;99629.34;5030962;28;20535;-84
2022/05/07 03:45:10;;;;;;;3.97;1.80;;;;;;;11.96;62.09;99634.97;5030570;28;20345;-84
2022/05/07 03:47:36;;;;;;;4.13;1.60;;;;;;;11.96;61.85;99631.50;5030516;28;20614;-84
2022/05/07 03:50:02;;;;;;;4.10;1.57;;;;;;;11.95;61.95;99635.06;5030533;28;20174;-84
2022/05/07 03:55:11;;;;;;;2.67;1.20;;;;;;;11.96;61.79;99642.00;5031164;28;20178;-84
2022/05/07 03:57:36;;;;;;;1.67;1.03;;;;;;;11.94;62.14;99636.84;5030210;28;20565;-84
2022/05/07 04:00:02;;;;;;;4.40;2.47;;;;;;;12.08;61.72;99639.59;5030295;28;20308;-84
2022/05/07 04:02:30;;;;;;;3.13;1.60;;;;;;;12.10;62.07;99636.91;5030289;28;20641;-84
2022/05/07 04:04:56;;;;;;;4.03;1.80;;;;;;;12.11;63.36;99641.22;5030280;28;20174;-84
2022/05/07 04:07:21;;;;;;;4.97;1.77;;;;;;;12.23;63.63;99653.75;5030403;28;20178;-84
2022/05/07 04:09:47;;;;;;;5.40;2.77;;;;;;;12.28;63.68;99641.22;5030432;28;20628;-84
2022/05/07 04:12:12;;;;;;;4.10;2.03;;;;;;;12.33;63.60;99640.06;5030294;28;20178;-84
2022/05/07 04:14:38;;;;;;;7.27;1.90;;;;;;;12.38;63.54;99642.47;5029412;28;20617;-84
2022/05/07 04:17:03;;;;;;;7.93;2.33;;;;;;;12.49;63.68;99640.13;5030191;28;20175;-84
2022/05/07 04:19:29;;;;;;;9.57;1.67;;;;;;;12.57;64.55;99651.09;5030762;28;20637;-84
2022/05/07 04:21:54;;;;;;;7.37;3.50;;;;;;;12.75;64.78;99636.13;5033290;28;20626;-84
2022/05/07 04:24:19;;;;;;;4.13;2.07;;;;;;;12.89;64.42;99644.13;5033796;28;20696;-84
2022/05/07 04:26:45;;;;;;;4.03;2.03;;;;;;;13.00;64.98;99647.00;5033744;28;20179;-84
2022/05/07 04:29:16;;;;;;;4.17;2.23;;;;;;;13.13;64.94;99636.72;5033868;28;20198;-84
2022/05/07 04:31:42;;;;;;;6.23;2.37;;;;;;;13.28;64.37;99641.97;5033500;28;20164;-84
2022/05/07 04:34:07;;;;;;;6.33;2.70;;;;;;;13.45;64.53;99639.25;5033522;28;20218;-84
2022/05/07 04:36:33;;;;;;;4.97;2.60;;;;;;;13.61;64.29;99644.50;5033424;28;20181;-84
2022/05/07 04:38:58;;;;;;;7.30;3.13;;;;;;;13.72;64.54;99651.78;5033345;28;20200;-84
2022/05/07 04:41:23;;;;;;;4.97;2.43;;;;;;;13.76;64.53;99646.25;5033408;28;20182;-84
2022/05/07 04:43:50;;;;;;;8.27;2.40;;;;;;;13.88;64.65;99648.19;5033593;28;20193;-84
2022/05/07 04:46:17;;;;;;;6.90;2.70;;;;;;;14.13;64.47;99653.72;5033632;28;20265;-84
2022/05/07 04:48:42;;;;;;;5.27;2.57;;;;;;;14.29;65.07;99652.81;5032854;28;20170;-83
2022/05/07 04:51:07;;;;;;;11.87;3.50;;;;;;;14.47;65.49;99655.22;5033447;28;20234;-84
2022/05/07 04:53:33;;;;;;;5.33;3.10;;;;;;;14.72;65.23;99662.53;5033222;28;20278;-84
2022/05/07 04:55:58;;;;;;;7.23;3.40;;;;;;;14.94;64.81;99651.47;5033056;28;20631;-84
2022/05/07 04:58:24;;;;;;;5.60;3.07;;;;;;;15.15;64.56;99650.97;5033040;28;20194;-84
2022/05/07 05:00:49;;;;;;;5.97;2.77;;;;;;;15.50;64.00;99659.34;5033307;28;20190;-84
2022/05/07 05:03:15;;;;;;;9.77;3.83;;;;;;;16.04;62.74;99656.69;5032024;28;20270;-84
2022/05/07 05:05:41;;;;;;;5.40;2.90;;;;;;;16.71;60.82;99656.47;5032930;28;20182;-84
2022/05/07 05:08:07;;;;;;;7.40;3.23;;;;;;;17.40;58.26;99652.44;5032836;28;20337;-84
2022/05/07 05:10:32;;;;;;;7.20;3.27;;;;;;;18.13;56.11;99653.19;5032809;28;20177;-84
2022/05/07 05:12:58;;;;;;;7.63;2.90;;;;;;;18.55;54.40;99657.94;5032768;28;20224;-84
2022/05/07 05:15:23;;;;;;;6.23;3.43;;;;;;;18.59;54.00;99654.06;5032736;28;20264;-84
2022/05/07 05:17:49;;;;;;;5.97;3.37;;;;;;;18.71;53.23;99661.06;5032850;28;20194;-84
2022/05/07 05:20:14;;;;;;;6.37;3.23;;;;;;;18.73;52.28;99664.47;5032657;28;20190;-84
2022/05/07 05:22:47;;;;;;;8.27;3.63;;;;;;;18.81;52.97;99664.72;5032645;28;20174;-84
2022/05/07 05:25:13;;;;;;;5.87;3.00;;;;;;;18.84;52.28;99667.13;5032974;28;20598;-84
2022/05/07 05:27:38;;;;;;;7.23;4.07;;;;;;;19.06;51.29;99670.75;5032592;28;20711;-84
2022/05/07 05:30:04;;;;;;;12.80;5.97;;;;;;;19.00;51.98;99666.78;5032444;28;20174;-84
2022/05/07 05:32:29;;;;;;;17.33;6.77;;;;;;;19.05;50.60;99661.13;5031846;28;20595;-84
2022/05/07 05:34:55;;;;;;;10.00;6.13;;;;;;;18.94;51.32;99661.97;5032392;28;20178;-84
2022/05/07 05:37:20;;;;;;;13.87;6.37;;;;;;;18.74;51.38;99676.78;5032472;28;20257;-84
2022/05/07 05:39:46;;;;;;;11.33;5.60;;;;;;;18.88;52.15;99673.91;5032568;28;20271;-84
2022/05/07 05:42:12;;;;;;;16.97;6.43;;;;;;;18.75;51.71;99669.66;5031299;28;20183;-84
2022/05/07 05:44:38;;;;;;;13.80;7.13;;;;;;;18.75;52.51;99681.13;5032307;28;20178;-84
2022/05/07 05:47:08;;;;;;;15.17;7.37;;;;;;;18.66;51.11;99673.88;5031251;28;20218;-84
2022/05/07 05:49:34;;;;;;;11.03;6.37;;;;;;;18.52;52.74;99676.75;5032549;28;20251;-84
2022/05/07 05:52:04;;;;;;;9.07;5.50;;;;;;;18.72;51.93;99683.16;5032100;28;20618;-84
2022/05/07 05:54:30;;;;;;;12.90;6.50;;;;;;;18.82;52.55;99677.03;5032124;28;20191;-84
2022/05/07 05:56:56;;;;;;;11.43;6.20;;;;;;;18.87;52.61;99680.19;5032105;28;20235;-84
2022/05/07 05:59:24;;;;;;;8.77;4.97;;;;;;;18.95;51.91;99685.75;5031978;28;20294;-85
2022/05/07 06:01:49;;;;;;;9.07;5.13;;;;;;;18.86;51.84;99683.81;5032295;28;20534;-84
2022/05/07 06:04:15;;;;;;;11.43;5.20;;;;;;;18.78;51.54;99682.72;5032278;28;20673;-84
2022/05/07 06:06:41;;;;;;;15.00;6.43;;;;;;;18.75;51.71;99682.94;5032272;28;20580;-84
2022/05/07 06:09:07;;;;;;;12.73;5.27;;;;;;;18.88;52.37;99679.22;5031023;28;20172;-84
2022/05/07 06:11:33;;;;;;;8.67;4.37;;;;;;;19.08;51.34;99677.63;5030915;28;20174;-84
2022/05/07 06:13:58;;;;;;;11.73;5.43;;;;;;;18.76;50.85;99684.66;5032221;28;20171;-84
2022/05/07 06:16:24;;;;;;;9.57;4.10;;;;;;;18.95;51.44;99683.09;5031831;28;20175;-84
2022/05/07 06:18:50;;;;;;;15.67;5.20;;;;;;;19.12;51.68;99675.59;5032352;28;20202;-84
2022/05/07 06:21:15;;;;;;;8.67;4.53;;;;;;;19.06;51.62;99679.59;5031598;28;20640;-84
2022/05/07 06:23:41;;;;;;;9.03;4.20;;;;;;;19.13;51.28;99682.63;5031654;28;20180;-83
2022/05/07 06:28:52;;;;;;;8.53;4.37;;;;;;;19.64;49.04;99675.81;5032210;28;20166;-85
2022/05/07 06:31:17;;;;;;;10.00;4.80;;;;;;;19.94;48.95;99691.09;5031557;28;20175;-85
2022/05/07 06:33:44;;;;;;;8.77;4.60;;;;;;;20.34;49.04;99683.31;5031774;28;20566;-85
2022/05/07 06:36:09;;;;;;;7.87;4.30;;;;;;;20.47;46.68;99683.97;5031498;28;20175;-85
2022/05/07 06:38:35;;;;;;;8.17;4.40;;;;;;;20.49;47.17;99677.53;5031552;28;20560;-84
2022/05/07 06:41:03;;;;;;;12.30;4.87;;;;;;;20.56;47.89;99683.19;5031495;28;20174;-85
2022/05/07 06:43:30;;;;;;;15.47;5.83;;;;;;;20.75;47.66;99678.00;5030693;28;20175;-85
2022/05/07 06:45:58;;;;;;;9.27;4.77;;;;;;;21.17;47.49;99682.28;5031077;28;20591;-85
2022/05/07 06:48:25;;;;;;;9.13;4.90;;;;;;;21.62;46.62;99682.72;5030347;28;20628;-84
2022/05/07 06:50:51;;;;;;;9.53;5.47;;;;;;;21.72;44.70;99682.75;5031575;28;20179;-85
2022/05/07 06:53:17;;;;;;;10.93;5.97;;;;;;;21.92;45.38;99687.16;5031170;28;20190;-85
2022/05/07 06:55:54;;;;;;;18.73;6.67;;;;;;;22.15;44.53;99677.91;5031327;28;20551;-85
2022/05/07 06:58:27;;;;;;;13.10;6.43;;;;;;;22.28;45.23;99685.63;5031455;28;20700;-85
2022/05/07 07:00:52;;;;;;;13.73;6.80;;;;;;;22.49;45.60;99673.81;5031499;28;20162;-85
2022/05/07 07:03:18;;;;;;;13.73;6.13;;;;;;;22.76;45.12;99677.56;5031281;28;20676;-86
2022/05/07 07:05:44;;;;;;;10.63;5.93;;;;;;;22.77;42.47;99684.63;5030468;28;20179;-86
2022/05/07 07:08:13;;;;;;;10.30;5.47;;;;;;;22.64;42.93;99684.94;5031097;28;20250;-86
2022/05/07 07:10:41;;;;;;;8.43;4.10;;;;;;;22.58;41.96;99685.47;5031175;28;20178;-85
2022/05/07 07:13:07;;;;;;;9.23;4.83;;;;;;;22.55;43.72;99691.09;5031053;28;20575;-85
2022/05/07 07:15:33;;;;;;;8.00;4.73;;;;;;;22.83;45.45;99689.38;5030022;28;20639;-86
2022/05/07 07:17:58;;;;;;;9.33;5.07;;;;;;;23.15;41.77;99689.84;5031086;28;20637;-86
2022/05/07 07:20:24;;;;;;;7.80;4.57;;;;;;;23.30;41.65;99683.00;5031370;28;20261;-85
2022/05/07 07:22:49;;;;;;;10.20;5.17;;;;;;;23.38;40.85;99687.66;5030460;28;20178;-85
2022/05/07 07:25:15;;;;;;;8.93;3.70;;;;;;;22.88;40.80;99690.63;5031168;28;20537;-87
2022/05/07 07:27:40;;;;;;;70.20;29.57;;;;;;;22.97;41.32;99687.09;5030834;28;20175;-87
2022/05/07 07:30:06;;;;;;;43.47;17.83;;;;;;;23.13;42.05;99686.47;5031243;28;20174;-86
2022/05/07 07:32:31;;;;;;;10.83;5.73;;;;;;;23.11;40.68;99677.75;5030732;28;20633;-85
2022/05/07 07:34:57;;;;;;;11.97;6.80;;;;;;;22.91;42.14;99682.31;5030969;28;20246;-86
2022/05/07 07:37:23;;;;;;;10.10;5.47;;;;;;;23.13;41.12;99679.31;5030787;28;20174;-86
2022/05/07 07:39:48;;;;;;;8.33;4.57;;;;;;;22.59;41.36;99679.13;5029813;28;20182;-87
2022/05/07 07:42:14;;;;;;;12.07;6.93;;;;;;;22.43;41.36;99674.34;5031024;28;20187;-87
2022/05/07 07:44:39;;;;;;;6.70;4.20;;;;;;;22.50;41.08;99677.31;5030768;28;20633;-86
2022/05/07 07:49:49;;;;;;;7.20;4.03;;;;;;;22.65;40.00;99678.59;5030474;28;20235;-86
2022/05/07 07:52:15;;;;;;;7.20;4.10;;;;;;;22.83;40.15;99678.69;5030431;28;20571;-87
2022/05/07 07:54:41;;;;;;;11.70;6.43;;;;;;;22.73;40.12;99677.88;5030034;28;20183;-87
2022/05/07 07:57:07;;;;;;;4.47;2.97;;;;;;;22.76;39.63;99677.56;5030565;28;20193;-87
2022/05/07 07:59:32;;;;;;;9.53;3.80;;;;;;;23.10;38.71;99670.72;5030310;28;20665;-86
2022/05/07 08:01:58;;;;;;;11.27;4.33;;;;;;;23.27;39.30;99670.78;5030308;28;20189;-86
2022/05/07 08:04:26;;;;;;;6.43;3.03;;;;;;;23.31;39.50;99674.00;5029339;28;20189;-87
2022/05/07 08:12:20;;;;;;;4.90;3.20;;;;;;;23.80;35.95;99675.44;5030764;28;20177;-87
2022/05/07 08:14:45;;;;;;;7.73;3.53;;;;;;;23.23;35.12;99673.91;5030434;28;20170;-86
2022/05/07 08:17:11;;;;;;;6.83;3.30;;;;;;;23.46;38.30;99680.56;5030102;28;20562;-87
2022/05/07 08:19:36;;;;;;;4.23;3.00;;;;;;;23.81;36.07;99680.66;5030053;28;20676;-87
2022/05/07 08:22:02;;;;;;;5.07;3.60;;;;;;;23.96;34.86;99666.72;5029448;28;20193;-87
2022/05/07 08:24:28;;;;;;;6.73;2.80;;;;;;;23.69;34.11;99673.81;5030285;28;20505;-86
2022/05/07 08:26:54;;;;;;;6.60;2.13;;;;;;;23.38;36.58;99672.44;5029936;28;20183;-86
2022/05/07 08:29:21;;;;;;;5.50;2.40;;;;;;;23.59;36.88;99674.84;5029938;28;20167;-87
2022/05/07 08:31:47;;;;;;;3.40;1.37;;;;;;;23.63;36.43;99679.78;5028934;28;20198;-87
2022/05/07 08:34:12;;;;;;;6.40;2.40;;;;;;;23.85;34.33;99676.66;5029860;28;20668;-87
2022/05/07 08:36:38;;;;;;;2.77;1.50;;;;;;;23.88;35.57;99682.72;5030098;28;20178;-87
2022/05/07 08:39:03;;;;;;;2.67;1.40;;;;;;;23.92;34.55;99681.44;5029725;28;20693;-87
2022/05/07 08:41:29;;;;;;;2.80;1.43;;;;;;;23.92;32.87;99670.72;5029784;28;20170;-87
2022/05/07 08:43:54;;;;;;;3.03;1.50;;;;;;;23.68;34.53;99677.50;5029734;28;20198;-87
2022/05/07 08:46:20;;;;;;;10.03;1.80;;;;;;;23.87;32.22;99676.53;5029712;28;20182;-88
2022/05/07 08:48:47;;;;;;;5.20;2.00;;;;;;;23.88;33.23;99677.34;5029670;28;20232;-87
2022/05/07 08:51:17;;;;;;;3.53;1.63;;;;;;;23.93;34.49;99678.59;5029632;28;20560;-87
2022/05/07 08:53:43;;;;;;;5.73;3.10;;;;;;;24.08;34.64;99681.59;5029535;28;20637;-87
2022/05/07 08:56:10;;;;;;;5.43;1.53;;;;;;;24.17;32.68;99676.19;5029675;28;20186;-86
2022/05/07 08:58:36;;;;;;;5.03;1.80;;;;;;;23.98;32.15;99675.47;5029777;28;20209;-87
2022/05/07 09:01:01;;;;;;;3.57;1.80;;;;;;;24.11;33.72;99667.94;5029621;28;20190;-87
2022/05/07 09:03:44;;;;;;;6.00;1.87;;;;;;;24.30;32.88;99667.75;5029590;28;20178;-87
2022/05/07 09:06:24;;;;;;;4.93;2.20;;;;;;;24.55;32.01;99666.97;5029249;28;20178;-87
2022/05/07 09:08:51;;;;;;;8.73;2.27;;;;;;;24.87;32.14;99656.47;5031394;28;20174;-88
2022/05/07 09:11:18;;;;;;;4.47;1.93;;;;;;;24.43;30.18;99673.53;5031860;28;20547;-87
2022/05/07 09:13:45;;;;;;;2.87;1.47;;;;;;;24.25;32.85;99675.41;5031851;28;20665;-87
2022/05/07 09:16:11;;;;;;;4.60;2.30;;;;;;;24.67;32.72;99667.53;5031819;28;20191;-89
2022/05/07 09:18:36;;;;;;;5.13;2.10;;;;;;;24.68;31.98;99659.34;5031972;28;20217;-88
2022/05/07 09:21:23;;;;;;;3.97;1.77;;;;;;;24.88;30.72;99657.31;5032535;28;20233;-88
2022/05/07 09:23:58;;;;;;;35.03;14.03;;;;;;;25.14;30.92;99651.91;5031755;28;20281;-86
2022/05/07 09:26:31;;;;;;;23.17;9.53;;;;;;;25.38;31.71;99660.06;5031670;28;20193;-88
2022/05/07 09:28:58;;;;;;;3.90;2.10;;;;;;;25.21;29.77;99652.97;5031854;28;20182;-88
2022/05/07 09:31:28;;;;;;;4.73;1.73;;;;;;;25.03;30.87;99651.19;5031594;28;20185;-87
2022/05/07 09:33:55;;;;;;;5.97;1.83;;;;;;;25.13;32.26;99651.06;5031521;28;20543;-89
2022/05/07 09:36:24;;;;;;;10.77;3.67;;;;;;;25.24;30.71;99640.06;5031507;28;20186;-87
2022/05/07 09:39:03;;;;;;;5.27;2.00;;;;;;;24.57;30.21;99651.56;5032332;28;20199;-87
2022/05/07 09:41:29;;;;;;;5.97;2.40;;;;;;;24.50;30.47;99641.63;5032236;28;20174;-88
2022/05/07 09:43:54;;;;;;;4.13;1.97;;;;;;;24.98;31.83;99637.41;5032334;28;20646;-88
2022/05/07 09:46:21;;;;;;;8.23;3.10;;;;;;;24.99;31.35;99631.06;5032820;28;20174;-88
2022/05/07 09:48:47;;;;;;;3.90;2.00;;;;;;;25.16;30.61;99631.16;5032224;28;20170;-87
2022/05/07 09:51:12;;;;;;;3.70;1.67;;;;;;;25.08;31.66;99634.59;5032219;28;20629;-87
2022/05/07 09:59:07;;;;;;;4.20;1.70;;;;;;;25.54;30.67;99622.59;5032158;28;20206;-88
2022/05/07 10:01:45;;;;;;;3.77;1.73;;;;;;;25.99;29.87;99628.38;5032297;28;20179;-88
2022/05/07 10:04:16;;;;;;;3.60;1.60;;;;;;;26.05;28.90;99622.31;5032161;28;20563;-88
2022/05/07 10:06:50;;;;;;;4.23;1.90;;;;;;;26.21;30.38;99626.88;5031267;28;20182;-89
2022/05/07 10:09:31;;;;;;;6.50;3.10;;;;;;;26.35;30.55;99618.16;5032281;28;20231;-89
2022/05/07 10:11:58;;;;;;;3.73;1.43;;;;;;;26.15;30.06;99623.03;5031787;28;20534;-88
2022/05/07 10:14:28;;;;;;;5.67;1.63;;;;;;;26.03;29.90;99621.66;5031810;28;20183;-87
2022/05/07 10:16:58;;;;;;;4.87;1.67;;;;;;;25.72;29.88;99612.56;5032170;28;20166;-87
2022/05/07 10:19:39;;;;;;;3.72;1.60;;;;;;;25.83;31.99;99609.56;5030505;28;20225;-88
2022/05/07 10:22:17;;;;;;;4.70;1.50;;;;;;;25.51;29.78;99612.16;5031027;28;20178;-88
2022/05/07 10:24:44;;;;;;;3.85;1.67;;;;;;;25.30;31.35;99612.56;5031996;28;20166;-87
2022/05/07 10:27:29;;;;;;;2.78;1.45;;;;;;;25.44;30.15;99600.38;5031663;28;20175;-88
2022/05/07 10:30:06;;;;;;;6.03;1.70;;;;;;;25.38;30.00;99604.56;5031887;28;20236;-88
2022/05/07 10:33:03;;;;;;;4.97;1.90;;;;;;;25.62;29.66;99601.97;5031560;28;20188;-90
2022/05/07 10:35:38;;;;;;;2.80;1.67;;;;;;;25.03;30.25;99602.06;5031825;28;20186;-90
2022/05/07 10:38:10;;;;;;;24.03;7.60;;;;;;;24.99;29.54;99590.84;5031598;28;20210;-88
2022/05/07 10:40:36;;;;;;;13.10;4.47;;;;;;;24.97;29.72;99587.44;5031389;28;20174;-88
2022/05/07 10:43:03;;;;;;;6.73;1.70;;;;;;;25.27;28.33;99591.44;5031455;28;20188;-90
2022/05/07 10:45:40;;;;;;;5.57;1.30;;;;;;;25.52;28.29;99581.63;5031915;28;20213;-91
2022/05/07 10:48:17;;;;;;;4.17;1.77;;;;;;;25.55;27.16;99581.31;5031586;28;20159;-88
2022/05/07 10:50:50;;;;;;;5.47;1.87;;;;;;;25.69;27.71;99577.97;5031578;28;20670;-88
2022/05/07 10:53:16;;;;;;;6.83;1.83;;;;;;;25.83;27.08;99585.38;5031073;28;20205;-89
2022/05/07 10:55:41;;;;;;;5.70;1.80;;;;;;;25.94;26.36;99579.66;5031448;28;20183;-90
2022/05/07 10:58:07;;;;;;;3.53;1.97;;;;;;;26.07;25.24;99585.38;5031087;28;20263;-88
2022/05/07 11:00:34;;;;;;;2.43;1.17;;;;;;;26.21;26.32;99573.97;5031698;28;20190;-88
2022/05/07 11:03:00;;;;;;;5.80;2.17;;;;;;;26.64;26.76;99567.38;5031658;28;20182;-88
2022/05/07 11:05:31;;;;;;;5.75;1.85;;;;;;;26.71;26.71;99564.81;5031039;28;20239;-88
2022/05/07 11:08:02;;;;;;;4.05;1.73;;;;;;;26.67;25.48;99555.41;5031178;28;20182;-88
2022/05/07 11:10:28;;;;;;;5.28;1.70;;;;;;;26.61;27.40;99556.94;5030004;28;20522;-88
2022/05/07 11:13:07;;;;;;;10.32;2.67;;;;;;;26.73;26.55;99555.56;5030943;28;20258;-88
2022/05/07 11:15:33;;;;;;;12.50;5.28;;;;;;;26.86;27.03;99554.22;5031209;28;20162;-87
2022/05/07 11:17:59;;;;;;;7.50;2.13;;;;;;;26.80;25.76;99553.06;5030143;28;20209;-88
2022/05/07 11:20:32;;;;;;;4.15;1.75;;;;;;;26.58;25.51;99548.38;5031057;28;20182;-88
2022/05/07 11:23:01;;;;;;;3.60;2.05;;;;;;;27.00;26.82;99551.63;5031072;28;20174;-88
2022/05/07 11:25:28;;;;;;;5.45;1.52;;;;;;;27.02;25.42;99552.28;5031004;28;20185;-88
2022/05/07 11:27:55;;;;;;;8.05;1.70;;;;;;;27.02;25.73;99548.78;5030699;28;20209;-87
2022/05/07 11:30:22;;;;;;;7.03;2.72;;;;;;;27.11;25.52;99545.00;5029990;28;20178;-89
2022/05/07 11:32:47;;;;;;;4.57;2.20;;;;;;;26.78;25.01;99549.72;5030696;28;20179;-90
2022/05/07 11:35:13;;;;;;;5.40;2.08;;;;;;;27.07;24.78;99543.69;5031107;28;20226;-89
2022/05/07 11:37:44;;;;;;;5.28;2.00;;;;;;;27.34;26.81;99545.88;5030525;28;20660;-89
2022/05/07 11:40:11;;;;;;;3.15;2.03;;;;;;;27.59;24.92;99535.84;5031065;28;20225;-88
2022/05/07 11:42:46;;;;;;;4.97;1.63;;;;;;;27.44;22.21;99528.53;5029550;28;20178;-86
2022/05/07 11:45:31;;;;;;;4.00;1.45;;;;;;;27.38;24.43;99531.88;5030475;28;20362;-87
2022/05/07 11:48:14;;;;;;;3.85;1.50;;;;;;;26.88;24.04;99538.72;5031024;28;20150;-87
2022/05/07 11:50:50;;;;;;;3.13;1.77;;;;;;;26.87;23.34;99527.13;5029481;28;20181;-88
2022/05/07 11:53:18;;;;;;;3.40;1.33;;;;;;;26.99;23.90;99523.03;5030460;28;20189;-88
2022/05/07 11:55:45;;;;;;;5.00;1.70;;;;;;;27.33;25.69;99523.50;5030277;28;20174;-89